createdAt,value
2023-11-09T00:01:54.617Z,4.54
2023-11-09T00:05:03.811Z,4.55
2023-11-09T00:08:12.626Z,4.45
2023-11-09T00:11:27.642Z,4.46
2023-11-09T00:14:42.632Z,4.49
2023-11-09T00:17:51.473Z,4.40
2023-11-09T00:21:00.620Z,4.33
2023-11-09T00:24:15.665Z,3.97
2023-11-09T00:27:29.622Z,4.30
2023-11-09T00:30:38.245Z,4.25
2023-11-09T00:33:46.669Z,4.22
2023-11-09T00:37:01.658Z,4.15
2023-11-09T00:40:05.961Z,4.17
2023-11-09T00:43:27.679Z,4.18
2023-11-09T00:46:29.893Z,4.15
2023-11-09T00:49:44.655Z,4.19
2023-11-09T00:52:46.585Z,4.16
2023-11-09T00:56:01.683Z,4.10
2023-11-09T00:59:03.818Z,4.05
2023-11-09T01:02:18.671Z,3.97
2023-11-09T01:05:28.702Z,3.99
2023-11-09T01:08:43.648Z,3.96
2023-11-09T01:11:58.645Z,3.92
2023-11-09T01:15:00.564Z,4.02
2023-11-09T01:18:15.644Z,3.99
2023-11-09T01:21:18.152Z,3.96
2023-11-09T01:24:32.656Z,3.92
2023-11-09T01:27:47.620Z,3.95
2023-11-09T01:30:56.457Z,3.89
2023-11-09T01:34:15.291Z,3.90
2023-11-09T01:37:24.178Z,3.86
2023-11-09T01:40:32.663Z,3.84
2023-11-09T01:44:02.627Z,3.85
2023-11-09T01:47:04.939Z,3.80
2023-11-09T01:50:21.648Z,3.78
2023-11-09T01:53:31.453Z,3.70
2023-11-09T01:56:47.654Z,3.75
2023-11-09T01:59:59.667Z,3.73
2023-11-09T02:03:15.657Z,3.70
2023-11-09T02:06:24.973Z,3.70
2023-11-09T02:09:46.648Z,3.84
2023-11-09T02:12:55.330Z,3.78
2023-11-09T02:16:12.686Z,3.78
2023-11-09T02:19:25.679Z,3.82
2023-11-09T02:22:38.219Z,3.81
2023-11-09T02:25:46.640Z,3.78
2023-11-09T02:28:55.536Z,3.77
2023-11-09T02:32:03.633Z,3.80
2023-11-09T02:35:18.672Z,3.87
2023-11-09T02:38:27.654Z,3.71
2023-11-09T02:41:36.468Z,3.66
2023-11-09T02:44:58.624Z,3.66
2023-11-09T02:48:00.622Z,3.62
2023-11-09T02:51:16.638Z,3.58
2023-11-09T02:54:18.822Z,3.51
2023-11-09T02:57:34.638Z,3.56
2023-11-09T03:00:36.743Z,3.56
2023-11-09T03:03:51.612Z,3.59
2023-11-09T03:07:00.598Z,3.68
2023-11-09T03:10:15.710Z,3.60
2023-11-09T03:13:31.735Z,3.39
2023-11-09T03:16:33.919Z,3.44
2023-11-09T03:19:48.648Z,3.42
2023-11-09T03:23:03.645Z,3.42
2023-11-09T03:26:12.469Z,3.45
2023-11-09T03:29:27.623Z,3.51
2023-11-09T03:32:29.550Z,3.48
2023-11-09T03:35:45.655Z,3.40
2023-11-09T03:38:54.138Z,3.43
2023-11-09T03:42:02.671Z,3.52
2023-11-09T03:45:17.681Z,3.58
2023-11-09T03:48:26.310Z,3.58
2023-11-09T03:51:41.641Z,3.51
2023-11-09T03:54:49.653Z,3.46
2023-11-09T03:57:58.420Z,3.38
2023-11-09T04:01:13.715Z,3.35
2023-11-09T04:04:22.774Z,3.25
2023-11-09T04:07:37.670Z,3.17
2023-11-09T04:10:52.659Z,3.14
2023-11-09T04:14:07.640Z,3.28
2023-11-09T04:17:15.642Z,3.41
2023-11-09T04:20:30.650Z,3.40
2023-11-09T04:23:32.785Z,3.42
2023-11-09T04:26:47.632Z,3.37
2023-11-09T04:29:56.505Z,3.22
2023-11-09T04:33:11.670Z,3.18
2023-11-09T04:36:14.097Z,3.19
2023-11-09T04:39:28.642Z,3.19
2023-11-09T04:42:37.176Z,3.14
2023-11-09T04:45:58.694Z,3.21
2023-11-09T04:49:07.747Z,3.27
2023-11-09T04:52:16.285Z,3.22
2023-11-09T04:55:31.699Z,3.21
2023-11-09T04:58:40.436Z,3.16
2023-11-09T05:01:48.635Z,3.12
2023-11-09T05:04:57.444Z,3.04
2023-11-09T05:08:05.618Z,2.98
2023-11-09T05:11:20.626Z,2.96
2023-11-09T05:14:29.635Z,2.90
2023-11-09T05:17:45.699Z,2.98
2023-11-09T05:20:49.797Z,3.05
2023-11-09T05:24:04.628Z,2.94
2023-11-09T05:27:13.472Z,3.01
2023-11-09T05:30:22.642Z,2.98
2023-11-09T05:33:31.187Z,2.95
2023-11-09T05:36:39.647Z,2.91
2023-11-09T05:39:48.459Z,2.90
2023-11-09T05:43:03.692Z,2.92
2023-11-09T05:46:12.602Z,2.90
2023-11-09T05:49:20.675Z,2.73
2023-11-09T05:52:29.198Z,2.73
2023-11-09T05:55:43.703Z,2.84
2023-11-09T05:58:58.746Z,2.83
2023-11-09T06:02:07.483Z,2.86
2023-11-09T06:05:22.678Z,2.95
2023-11-09T06:08:31.640Z,2.84
2023-11-09T06:11:46.634Z,2.86
2023-11-09T06:15:01.665Z,2.94
2023-11-09T06:18:04.369Z,2.99
2023-11-09T06:21:19.638Z,2.91
2023-11-09T06:24:21.568Z,2.90
2023-11-09T06:27:36.639Z,2.94
2023-11-09T06:30:38.530Z,3.12
2023-11-09T06:33:53.661Z,3.18
2023-11-09T06:37:02.598Z,3.25
2023-11-09T06:40:11.653Z,3.34
2023-11-09T06:43:33.649Z,3.44
2023-11-09T06:46:35.732Z,3.52
2023-11-09T06:49:50.652Z,3.64
2023-11-09T06:53:00.332Z,3.74
2023-11-09T06:56:15.633Z,3.82
2023-11-09T06:59:24.668Z,3.81
2023-11-09T07:02:34.361Z,3.94
2023-11-09T07:05:49.770Z,4.00
2023-11-09T07:08:52.011Z,4.19
2023-11-09T07:12:06.627Z,4.27
2023-11-09T07:15:15.559Z,4.38
2023-11-09T07:18:24.709Z,4.50
2023-11-09T07:21:33.492Z,4.60
2023-11-09T07:24:52.488Z,4.81
2023-11-09T07:28:04.668Z,4.97
2023-11-09T07:31:13.556Z,5.11
2023-11-09T07:34:28.673Z,5.25
2023-11-09T07:37:37.691Z,5.43
2023-11-09T07:40:47.786Z,5.65
2023-11-09T07:44:03.617Z,5.76
2023-11-09T07:47:12.443Z,5.97
2023-11-09T07:50:28.644Z,6.32
2023-11-09T07:53:30.472Z,6.66
2023-11-09T07:56:46.629Z,7.00
2023-11-09T07:59:54.624Z,7.15
2023-11-09T08:03:13.344Z,7.53
2023-11-09T08:06:28.639Z,7.59
2023-11-09T08:09:36.736Z,7.96
2023-11-09T08:12:51.681Z,7.99
2023-11-09T08:15:59.630Z,8.05
2023-11-09T08:19:08.641Z,7.96
2023-11-09T08:22:17.624Z,8.04
2023-11-09T08:25:33.703Z,8.05
2023-11-09T08:28:48.634Z,8.18
2023-11-09T08:32:03.666Z,8.22
2023-11-09T08:35:08.790Z,8.31
2023-11-09T08:38:23.659Z,8.43
2023-11-09T08:41:32.212Z,8.50
2023-11-09T08:44:53.631Z,8.58
2023-11-09T08:48:08.823Z,8.62
2023-11-09T08:51:23.663Z,8.71
2023-11-09T08:54:32.580Z,8.85
2023-11-09T08:57:48.649Z,9.11
2023-11-09T09:01:03.628Z,9.39
2023-11-09T09:04:18.762Z,9.46
2023-11-09T09:07:33.709Z,9.75
2023-11-09T09:10:43.687Z,10.14
2023-11-09T09:13:52.458Z,10.54
2023-11-09T09:17:07.661Z,10.80
2023-11-09T09:20:24.732Z,11.17
2023-11-09T09:23:33.208Z,11.43
2023-11-09T09:26:47.829Z,11.64
2023-11-09T09:29:56.177Z,11.82
2023-11-09T09:33:05.810Z,12.16
2023-11-09T09:36:14.502Z,12.35
2023-11-09T09:39:30.636Z,12.33
2023-11-09T09:42:47.397Z,12.42
2023-11-09T09:46:04.659Z,12.57
2023-11-09T09:49:13.648Z,12.63
2023-11-09T09:52:29.676Z,12.91
2023-11-09T09:55:38.927Z,13.13
2023-11-09T09:58:56.652Z,13.24
2023-11-09T10:02:17.637Z,13.48
2023-11-09T10:05:29.811Z,13.40
2023-11-09T10:08:38.649Z,13.13
2023-11-09T10:11:50.475Z,13.10
2023-11-09T10:14:58.619Z,13.12
2023-11-09T10:18:14.706Z,13.04
2023-11-09T10:21:23.926Z,12.99
2023-11-09T10:24:39.644Z,13.10
2023-11-09T10:27:48.564Z,13.30
2023-11-09T10:31:03.655Z,13.12
2023-11-09T10:34:11.792Z,13.36
2023-11-09T10:37:20.408Z,13.07
2023-11-09T10:40:36.706Z,13.18
2023-11-09T10:43:45.712Z,13.06
2023-11-09T10:47:09.123Z,13.18
2023-11-09T10:50:26.675Z,13.16
2023-11-09T10:53:35.634Z,13.12
2023-11-09T10:56:51.646Z,12.96
2023-11-09T11:00:06.661Z,12.83
2023-11-09T11:03:27.371Z,12.75
2023-11-09T11:06:53.637Z,12.84
2023-11-09T11:10:02.662Z,12.81
2023-11-09T11:13:12.936Z,12.90
2023-11-09T11:16:59.677Z,13.02
2023-11-09T11:21:03.679Z,13.06
2023-11-09T11:24:41.672Z,12.97
2023-11-09T11:28:01.690Z,12.97
2023-11-09T11:31:10.471Z,12.97
2023-11-09T11:34:20.722Z,12.98
2023-11-09T11:37:29.606Z,13.07
2023-11-09T11:40:44.895Z,13.09
2023-11-09T11:43:54.406Z,13.14
2023-11-09T11:47:09.671Z,13.09
2023-11-09T11:50:18.736Z,13.12
2023-11-09T11:53:37.553Z,12.99
2023-11-09T11:56:57.653Z,12.94
2023-11-09T12:00:07.796Z,12.90
2023-11-09T12:03:17.653Z,12.96
2023-11-09T12:06:28.503Z,13.03
2023-11-09T12:09:37.673Z,13.03
2023-11-09T12:13:02.745Z,13.07
2023-11-09T12:16:11.339Z,13.01
2023-11-09T12:19:20.073Z,12.99
2023-11-09T12:22:34.704Z,13.02
2023-11-09T12:26:02.665Z,13.06
2023-11-09T12:29:11.790Z,13.15
2023-11-09T12:32:20.743Z,13.13
2023-11-09T12:35:35.698Z,13.14
2023-11-09T12:38:37.828Z,13.19
2023-11-09T12:41:52.727Z,13.24
2023-11-09T12:45:17.745Z,13.31
2023-11-09T12:48:19.694Z,13.31
2023-11-09T12:51:34.641Z,13.34
2023-11-09T12:54:43.661Z,13.34
2023-11-09T12:57:58.649Z,13.40
2023-11-09T13:01:07.672Z,13.43
2023-11-09T13:04:16.438Z,13.42
2023-11-09T13:07:31.778Z,13.40
2023-11-09T13:10:33.990Z,13.37
2023-11-09T13:13:48.709Z,13.34
2023-11-09T13:16:57.554Z,13.38
2023-11-09T13:20:05.795Z,13.37
2023-11-09T13:23:21.664Z,13.44
2023-11-09T13:26:23.663Z,13.49
2023-11-09T13:29:39.837Z,13.54
2023-11-09T13:32:42.885Z,13.60
2023-11-09T13:35:58.669Z,13.55
2023-11-09T13:39:06.677Z,13.38
2023-11-09T13:42:15.279Z,13.32
2023-11-09T13:45:30.701Z,13.29
2023-11-09T13:48:45.757Z,13.29
2023-11-09T13:51:56.699Z,13.18
2023-11-09T13:55:05.768Z,13.11
2023-11-09T13:58:14.836Z,13.03
2023-11-09T14:01:26.332Z,12.91
2023-11-09T14:04:41.739Z,12.88
2023-11-09T14:07:56.686Z,12.90
2023-11-09T14:11:05.557Z,12.84
2023-11-09T14:14:13.694Z,12.76
2023-11-09T14:17:28.737Z,12.74
2023-11-09T14:20:30.782Z,12.75
2023-11-09T14:23:45.723Z,12.66
2023-11-09T14:26:54.530Z,12.62
2023-11-09T14:30:09.677Z,12.54
2023-11-09T14:33:24.730Z,12.55
2023-11-09T14:36:39.747Z,12.57
2023-11-09T14:39:51.689Z,12.52
2023-11-09T14:43:07.613Z,12.47
2023-11-09T14:46:32.724Z,12.37
2023-11-09T14:49:34.772Z,12.38
2023-11-09T14:52:49.684Z,12.31
2023-11-09T14:56:04.702Z,12.23
2023-11-09T14:59:13.636Z,12.20
2023-11-09T15:02:22.818Z,12.13
2023-11-09T15:05:37.663Z,12.09
2023-11-09T15:08:46.541Z,12.00
2023-11-09T15:12:01.700Z,12.01
2023-11-09T15:15:17.709Z,11.96
2023-11-09T15:18:32.767Z,11.85
2023-11-09T15:21:47.715Z,11.73
2023-11-09T15:24:55.703Z,11.62
2023-11-09T15:28:04.434Z,11.50
2023-11-09T15:31:12.682Z,11.43
2023-11-09T15:34:21.324Z,11.36
2023-11-09T15:37:38.397Z,11.25
2023-11-09T15:41:16.537Z,11.30
2023-11-09T15:44:23.705Z,11.22
2023-11-09T15:47:38.768Z,11.19
2023-11-09T15:50:47.227Z,11.12
2023-11-09T15:54:01.712Z,11.03
2023-11-09T15:57:16.714Z,11.00
2023-11-09T16:00:27.730Z,10.97
2023-11-09T16:03:42.824Z,10.96
2023-11-09T16:06:44.719Z,10.86
2023-11-09T16:10:03.930Z,10.84
2023-11-09T16:13:20.776Z,10.77
2023-11-09T16:16:29.733Z,10.80
2023-11-09T16:19:44.720Z,10.82
2023-11-09T16:22:53.284Z,10.79
2023-11-09T16:26:01.871Z,10.73
2023-11-09T16:29:16.697Z,10.67
2023-11-09T16:32:25.548Z,10.58
2023-11-09T16:35:34.699Z,10.49
2023-11-09T16:38:43.676Z,10.42
2023-11-09T16:41:52.717Z,10.39
2023-11-09T16:45:08.434Z,10.31
2023-11-09T16:48:23.700Z,10.24
2023-11-09T16:51:31.717Z,10.20
2023-11-09T16:54:40.391Z,10.18
2023-11-09T16:57:55.697Z,10.15
2023-11-09T17:00:57.657Z,10.12
2023-11-09T17:04:12.741Z,10.07
2023-11-09T17:07:20.720Z,10.00
2023-11-09T17:10:49.275Z,9.97
2023-11-09T17:13:57.711Z,9.94
2023-11-09T17:17:06.471Z,9.86
2023-11-09T17:20:21.700Z,9.81
2023-11-09T17:23:30.337Z,9.71
2023-11-09T17:26:38.705Z,9.65
2023-11-09T17:29:53.779Z,9.60
2023-11-09T17:33:04.185Z,9.52
2023-11-09T17:36:19.707Z,9.53
2023-11-09T17:39:28.460Z,9.50
2023-11-09T17:42:44.697Z,9.46
2023-11-09T17:46:00.237Z,9.38
2023-11-09T17:49:14.684Z,9.35
2023-11-09T17:52:30.725Z,9.34
2023-11-09T17:55:39.727Z,9.29
2023-11-09T17:58:49.510Z,9.29
2023-11-09T18:01:59.202Z,9.26
2023-11-09T18:05:18.118Z,9.22
2023-11-09T18:08:27.218Z,9.15
2023-11-09T18:11:43.778Z,9.18
2023-11-09T18:15:01.144Z,9.16
2023-11-09T18:18:17.132Z,9.13
2023-11-09T18:21:26.699Z,9.15
2023-11-09T18:24:35.733Z,9.13
2023-11-09T18:27:51.024Z,9.12
2023-11-09T18:30:59.705Z,9.09
2023-11-09T18:34:14.934Z,9.04
2023-11-09T18:37:23.769Z,9.01
2023-11-09T18:40:38.759Z,8.98
2023-11-09T18:44:00.781Z,8.98
2023-11-09T18:47:10.169Z,8.96
2023-11-09T18:53:39.136Z,8.84
2023-11-09T18:56:54.769Z,8.81
2023-11-09T19:00:11.235Z,8.75
2023-11-09T19:06:33.755Z,8.60
2023-11-09T19:09:42.844Z,8.52
2023-11-09T19:12:51.835Z,8.50
2023-11-09T19:16:03.248Z,8.42
2023-11-09T19:19:13.046Z,8.41
2023-11-09T19:22:29.306Z,8.41
2023-11-09T19:25:46.058Z,8.33
2023-11-09T19:28:57.294Z,8.27
2023-11-09T19:32:14.370Z,8.30
2023-11-09T19:35:31.233Z,8.35
2023-11-09T19:38:34.134Z,8.37
2023-11-09T19:41:56.181Z,8.49
2023-11-09T19:45:12.168Z,8.50
2023-11-09T19:48:21.952Z,8.47
2023-11-09T19:51:38.602Z,8.54
2023-11-09T19:54:48.493Z,8.59
2023-11-09T19:58:06.354Z,8.71
2023-11-09T20:01:17.266Z,8.81
2023-11-09T20:04:27.595Z,8.87
2023-11-09T20:07:38.353Z,8.95
2023-11-09T20:10:48.433Z,8.99
2023-11-09T20:14:05.093Z,9.03
2023-11-09T20:17:15.183Z,9.04
2023-11-09T20:20:30.884Z,9.06
2023-11-09T20:23:45.711Z,9.00
2023-11-09T20:26:52.238Z,8.96
2023-11-09T20:30:08.237Z,8.90
2023-11-09T20:33:17.854Z,8.83
2023-11-09T20:36:34.189Z,8.86
2023-11-09T20:39:50.205Z,8.82
2023-11-09T20:43:00.251Z,8.85
2023-11-09T20:46:22.772Z,8.90
2023-11-09T20:49:38.710Z,8.93
2023-11-09T20:52:51.207Z,8.97
2023-11-09T20:56:08.182Z,9.06
2023-11-09T20:59:13.200Z,9.07
2023-11-09T21:02:27.988Z,9.07
2023-11-09T21:05:36.759Z,9.06
2023-11-09T21:08:45.723Z,9.08
2023-11-09T21:12:01.203Z,9.06
2023-11-09T21:15:09.782Z,9.14
2023-11-09T21:18:24.998Z,9.14
2023-11-09T21:21:33.955Z,9.16
2023-11-09T21:24:42.754Z,9.16
2023-11-09T21:27:51.280Z,9.19
2023-11-09T21:30:59.694Z,9.20
2023-11-09T21:34:14.889Z,9.22
2023-11-09T21:37:23.697Z,9.23
2023-11-09T21:40:38.728Z,9.21
2023-11-09T21:44:00.694Z,9.18
2023-11-09T21:47:15.811Z,9.16
2023-11-09T21:50:24.247Z,9.09
2023-11-09T21:53:32.746Z,8.97
2023-11-09T21:56:48.770Z,9.01
2023-11-09T22:00:03.769Z,8.97
2023-11-09T22:03:06.207Z,9.02
2023-11-09T22:06:20.724Z,8.96
2023-11-09T22:09:29.842Z,8.86
2023-11-09T22:12:38.695Z,8.85
2023-11-09T22:15:55.161Z,8.80
2023-11-09T22:19:03.228Z,8.69
2023-11-09T22:22:17.712Z,8.65
2023-11-09T22:25:19.883Z,8.61
2023-11-09T22:28:34.720Z,8.53
2023-11-09T22:31:42.734Z,8.46
2023-11-09T22:34:51.564Z,8.39
2023-11-09T22:38:00.745Z,8.34
2023-11-09T22:41:09.506Z,8.33
2023-11-09T22:44:17.747Z,8.37
2023-11-09T22:47:33.001Z,8.38
2023-11-09T22:50:41.718Z,8.44
2023-11-09T22:53:56.742Z,8.41
2023-11-09T22:56:58.568Z,8.34
2023-11-09T23:00:14.753Z,8.32
2023-11-09T23:03:17.737Z,8.31
2023-11-09T23:06:32.739Z,8.23
2023-11-09T23:09:41.532Z,8.13
2023-11-09T23:12:50.732Z,8.12
2023-11-09T23:15:59.577Z,8.16
2023-11-09T23:19:14.725Z,8.14
2023-11-09T23:22:29.717Z,8.10
2023-11-09T23:25:38.600Z,7.98
2023-11-09T23:28:51.729Z,7.87
2023-11-09T23:32:00.318Z,7.75
2023-11-09T23:35:15.787Z,7.60
2023-11-09T23:38:18.431Z,7.55
2023-11-09T23:41:33.725Z,7.55
2023-11-09T23:44:35.936Z,7.62
2023-11-09T23:47:57.808Z,7.66
2023-11-09T23:51:20.809Z,7.59
2023-11-09T23:54:29.938Z,7.61
2023-11-09T23:57:44.740Z,7.57
